sensor_id;sensor_type;location;lat;lon;timestamp;P1;durP1;ratioP1;P2;durP2;ratioP2
55364;SDS011;41245;45.384;20.390;2023-02-08T00:00:14;57.20;;;25.13;;
55364;SDS011;41245;45.384;20.390;2023-02-08T00:02:40;56.20;;;23.70;;
55364;SDS011;41245;45.384;20.390;2023-02-08T00:05:05;50.00;;;22.35;;
55364;SDS011;41245;45.384;20.390;2023-02-08T00:07:31;52.22;;;22.25;;
55364;SDS011;41245;45.384;20.390;2023-02-08T00:09:57;59.15;;;22.00;;
55364;SDS011;41245;45.384;20.390;2023-02-08T00:12:22;49.03;;;21.13;;
55364;SDS011;41245;45.384;20.390;2023-02-08T00:14:48;45.17;;;19.92;;
55364;SDS011;41245;45.384;20.390;2023-02-08T00:17:14;52.33;;;21.20;;
55364;SDS011;41245;45.384;20.390;2023-02-08T00:19:39;50.55;;;21.13;;
55364;SDS011;41245;45.384;20.390;2023-02-08T00:22:05;51.05;;;21.73;;
55364;SDS011;41245;45.384;20.390;2023-02-08T00:24:31;56.78;;;22.23;;
55364;SDS011;41245;45.384;20.390;2023-02-08T00:26:57;56.70;;;23.70;;
55364;SDS011;41245;45.384;20.390;2023-02-08T00:29:22;55.13;;;21.92;;
55364;SDS011;41245;45.384;20.390;2023-02-08T00:31:48;52.20;;;22.15;;
55364;SDS011;41245;45.384;20.390;2023-02-08T00:34:14;53.90;;;23.20;;
55364;SDS011;41245;45.384;20.390;2023-02-08T00:36:39;52.42;;;22.88;;
55364;SDS011;41245;45.384;20.390;2023-02-08T00:39:05;50.80;;;21.65;;
55364;SDS011;41245;45.384;20.390;2023-02-08T00:41:30;49.85;;;22.75;;
55364;SDS011;41245;45.384;20.390;2023-02-08T00:43:56;53.50;;;23.00;;
55364;SDS011;41245;45.384;20.390;2023-02-08T00:46:22;47.58;;;22.65;;
55364;SDS011;41245;45.384;20.390;2023-02-08T00:48:47;49.53;;;23.17;;
55364;SDS011;41245;45.384;20.390;2023-02-08T00:51:13;58.35;;;23.77;;
55364;SDS011;41245;45.384;20.390;2023-02-08T00:53:40;57.00;;;23.48;;
55364;SDS011;41245;45.384;20.390;2023-02-08T00:56:08;51.10;;;21.45;;
55364;SDS011;41245;45.384;20.390;2023-02-08T00:58:35;50.80;;;22.27;;
55364;SDS011;41245;45.384;20.390;2023-02-08T01:01:02;56.17;;;22.52;;
55364;SDS011;41245;45.384;20.390;2023-02-08T01:03:28;51.67;;;22.10;;
55364;SDS011;41245;45.384;20.390;2023-02-08T01:05:58;51.03;;;21.88;;
55364;SDS011;41245;45.384;20.390;2023-02-08T01:08:24;49.10;;;20.88;;
55364;SDS011;41245;45.384;20.390;2023-02-08T01:10:50;51.83;;;20.90;;
55364;SDS011;41245;45.384;20.390;2023-02-08T01:13:16;52.30;;;22.92;;
55364;SDS011;41245;45.384;20.390;2023-02-08T01:15:41;48.28;;;20.27;;
55364;SDS011;41245;45.384;20.390;2023-02-08T01:18:07;61.83;;;22.77;;
55364;SDS011;41245;45.384;20.390;2023-02-08T01:20:34;50.08;;;21.27;;
55364;SDS011;41245;45.384;20.390;2023-02-08T01:23:01;65.63;;;26.98;;
55364;SDS011;41245;45.384;20.390;2023-02-08T01:25:27;62.83;;;25.52;;
55364;SDS011;41245;45.384;20.390;2023-02-08T01:27:52;60.17;;;25.08;;
55364;SDS011;41245;45.384;20.390;2023-02-08T01:30:21;51.08;;;21.40;;
55364;SDS011;41245;45.384;20.390;2023-02-08T01:32:47;58.92;;;25.40;;
55364;SDS011;41245;45.384;20.390;2023-02-08T01:35:13;58.97;;;23.45;;
55364;SDS011;41245;45.384;20.390;2023-02-08T01:37:39;55.28;;;24.70;;
55364;SDS011;41245;45.384;20.390;2023-02-08T01:40:04;59.67;;;24.92;;
55364;SDS011;41245;45.384;20.390;2023-02-08T01:42:30;51.40;;;23.08;;
55364;SDS011;41245;45.384;20.390;2023-02-08T01:48:09;51.58;;;22.42;;
55364;SDS011;41245;45.384;20.390;2023-02-08T01:53:23;64.30;;;26.38;;
55364;SDS011;41245;45.384;20.390;2023-02-08T01:55:51;52.63;;;23.13;;
55364;SDS011;41245;45.384;20.390;2023-02-08T01:58:21;53.47;;;23.30;;
55364;SDS011;41245;45.384;20.390;2023-02-08T02:00:49;48.22;;;23.58;;
55364;SDS011;41245;45.384;20.390;2023-02-08T02:03:15;54.83;;;23.42;;
55364;SDS011;41245;45.384;20.390;2023-02-08T02:05:44;56.08;;;23.17;;
55364;SDS011;41245;45.384;20.390;2023-02-08T02:08:13;55.67;;;24.20;;
55364;SDS011;41245;45.384;20.390;2023-02-08T02:10:39;49.03;;;22.42;;
55364;SDS011;41245;45.384;20.390;2023-02-08T02:13:11;50.17;;;21.70;;
55364;SDS011;41245;45.384;20.390;2023-02-08T02:15:42;51.88;;;22.50;;
55364;SDS011;41245;45.384;20.390;2023-02-08T02:18:08;51.15;;;21.85;;
55364;SDS011;41245;45.384;20.390;2023-02-08T02:34:33;48.30;;;22.75;;
55364;SDS011;41245;45.384;20.390;2023-02-08T02:49:11;50.90;;;22.08;;
55364;SDS011;41245;45.384;20.390;2023-02-08T02:51:44;54.67;;;22.55;;
55364;SDS011;41245;45.384;20.390;2023-02-08T02:54:22;46.80;;;21.20;;
55364;SDS011;41245;45.384;20.390;2023-02-08T02:56:57;51.13;;;21.83;;
55364;SDS011;41245;45.384;20.390;2023-02-08T02:59:33;53.13;;;20.67;;
55364;SDS011;41245;45.384;20.390;2023-02-08T03:02:00;51.22;;;22.20;;
55364;SDS011;41245;45.384;20.390;2023-02-08T03:20:20;51.05;;;22.50;;
55364;SDS011;41245;45.384;20.390;2023-02-08T03:23:01;53.88;;;22.25;;
55364;SDS011;41245;45.384;20.390;2023-02-08T03:28:23;49.75;;;20.90;;
55364;SDS011;41245;45.384;20.390;2023-02-08T03:31:03;49.85;;;22.83;;
55364;SDS011;41245;45.384;20.390;2023-02-08T03:38:57;58.83;;;24.67;;
55364;SDS011;41245;45.384;20.390;2023-02-08T03:41:29;52.50;;;23.15;;
55364;SDS011;41245;45.384;20.390;2023-02-08T03:44:08;51.03;;;22.38;;
55364;SDS011;41245;45.384;20.390;2023-02-08T03:46:54;55.50;;;25.25;;
55364;SDS011;41245;45.384;20.390;2023-02-08T03:49:28;53.08;;;23.77;;
55364;SDS011;41245;45.384;20.390;2023-02-08T03:51:58;53.40;;;23.73;;
55364;SDS011;41245;45.384;20.390;2023-02-08T03:54:27;56.10;;;24.48;;
55364;SDS011;41245;45.384;20.390;2023-02-08T03:57:05;50.85;;;22.95;;
55364;SDS011;41245;45.384;20.390;2023-02-08T03:59:37;45.45;;;23.25;;
55364;SDS011;41245;45.384;20.390;2023-02-08T04:02:06;48.28;;;22.58;;
55364;SDS011;41245;45.384;20.390;2023-02-08T04:04:37;50.50;;;22.10;;
55364;SDS011;41245;45.384;20.390;2023-02-08T04:07:06;50.30;;;21.27;;
55364;SDS011;41245;45.384;20.390;2023-02-08T04:09:32;50.72;;;21.38;;
55364;SDS011;41245;45.384;20.390;2023-02-08T04:11:58;54.83;;;23.17;;
55364;SDS011;41245;45.384;20.390;2023-02-08T04:14:23;48.25;;;22.13;;
55364;SDS011;41245;45.384;20.390;2023-02-08T04:16:50;44.30;;;21.27;;
55364;SDS011;41245;45.384;20.390;2023-02-08T04:19:15;50.92;;;22.05;;
55364;SDS011;41245;45.384;20.390;2023-02-08T04:21:41;48.88;;;21.88;;
55364;SDS011;41245;45.384;20.390;2023-02-08T04:24:07;40.88;;;20.30;;
55364;SDS011;41245;45.384;20.390;2023-02-08T04:26:32;51.00;;;22.00;;
55364;SDS011;41245;45.384;20.390;2023-02-08T04:28:58;50.35;;;22.48;;
55364;SDS011;41245;45.384;20.390;2023-02-08T04:31:24;48.58;;;23.25;;
55364;SDS011;41245;45.384;20.390;2023-02-08T04:33:50;46.63;;;22.33;;
55364;SDS011;41245;45.384;20.390;2023-02-08T04:36:16;49.42;;;22.10;;
55364;SDS011;41245;45.384;20.390;2023-02-08T04:38:42;55.58;;;21.75;;
55364;SDS011;41245;45.384;20.390;2023-02-08T04:41:07;49.30;;;22.42;;
55364;SDS011;41245;45.384;20.390;2023-02-08T04:43:33;53.28;;;22.67;;
55364;SDS011;41245;45.384;20.390;2023-02-08T04:45:59;47.10;;;22.65;;
55364;SDS011;41245;45.384;20.390;2023-02-08T04:48:25;53.08;;;21.52;;
55364;SDS011;41245;45.384;20.390;2023-02-08T04:50:53;49.72;;;21.58;;
55364;SDS011;41245;45.384;20.390;2023-02-08T04:53:20;49.78;;;21.55;;
55364;SDS011;41245;45.384;20.390;2023-02-08T04:55:46;48.05;;;23.70;;
55364;SDS011;41245;45.384;20.390;2023-02-08T04:58:12;55.40;;;23.48;;
55364;SDS011;41245;45.384;20.390;2023-02-08T05:00:38;59.08;;;24.25;;
55364;SDS011;41245;45.384;20.390;2023-02-08T05:03:03;49.15;;;23.02;;
55364;SDS011;41245;45.384;20.390;2023-02-08T05:05:29;58.42;;;24.42;;
55364;SDS011;41245;45.384;20.390;2023-02-08T05:07:55;50.22;;;24.40;;
55364;SDS011;41245;45.384;20.390;2023-02-08T05:10:21;52.22;;;25.13;;
55364;SDS011;41245;45.384;20.390;2023-02-08T05:12:47;54.65;;;24.27;;
55364;SDS011;41245;45.384;20.390;2023-02-08T05:15:12;49.78;;;23.50;;
55364;SDS011;41245;45.384;20.390;2023-02-08T05:17:38;47.10;;;23.52;;
55364;SDS011;41245;45.384;20.390;2023-02-08T05:20:04;48.95;;;23.67;;
55364;SDS011;41245;45.384;20.390;2023-02-08T05:22:31;55.80;;;24.70;;
55364;SDS011;41245;45.384;20.390;2023-02-08T05:24:56;63.33;;;26.05;;
55364;SDS011;41245;45.384;20.390;2023-02-08T05:27:22;58.25;;;27.15;;
55364;SDS011;41245;45.384;20.390;2023-02-08T05:29:48;55.13;;;25.75;;
55364;SDS011;41245;45.384;20.390;2023-02-08T05:32:14;57.20;;;24.38;;
55364;SDS011;41245;45.384;20.390;2023-02-08T05:34:40;56.53;;;25.58;;
55364;SDS011;41245;45.384;20.390;2023-02-08T05:37:05;54.35;;;26.30;;
55364;SDS011;41245;45.384;20.390;2023-02-08T05:39:31;63.67;;;25.98;;
55364;SDS011;41245;45.384;20.390;2023-02-08T05:41:56;64.05;;;28.35;;
55364;SDS011;41245;45.384;20.390;2023-02-08T05:44:22;63.00;;;31.20;;
55364;SDS011;41245;45.384;20.390;2023-02-08T05:46:48;76.03;;;30.60;;
55364;SDS011;41245;45.384;20.390;2023-02-08T05:49:13;59.10;;;27.45;;
55364;SDS011;41245;45.384;20.390;2023-02-08T05:51:39;62.95;;;28.70;;
55364;SDS011;41245;45.384;20.390;2023-02-08T05:54:04;69.40;;;29.85;;
55364;SDS011;41245;45.384;20.390;2023-02-08T05:56:30;71.75;;;30.30;;
55364;SDS011;41245;45.384;20.390;2023-02-08T05:58:58;64.13;;;27.70;;
55364;SDS011;41245;45.384;20.390;2023-02-08T06:01:25;60.55;;;27.40;;
55364;SDS011;41245;45.384;20.390;2023-02-08T06:03:51;73.32;;;28.52;;
55364;SDS011;41245;45.384;20.390;2023-02-08T06:06:16;69.80;;;29.40;;
55364;SDS011;41245;45.384;20.390;2023-02-08T06:08:42;70.57;;;31.00;;
55364;SDS011;41245;45.384;20.390;2023-02-08T06:11:07;63.67;;;28.70;;
55364;SDS011;41245;45.384;20.390;2023-02-08T06:13:33;77.15;;;32.83;;
55364;SDS011;41245;45.384;20.390;2023-02-08T06:15:59;65.72;;;29.60;;
55364;SDS011;41245;45.384;20.390;2023-02-08T06:18:24;66.65;;;30.92;;
55364;SDS011;41245;45.384;20.390;2023-02-08T06:20:53;63.88;;;29.58;;
55364;SDS011;41245;45.384;20.390;2023-02-08T06:23:19;72.30;;;32.63;;
55364;SDS011;41245;45.384;20.390;2023-02-08T06:25:45;71.85;;;34.70;;
55364;SDS011;41245;45.384;20.390;2023-02-08T06:28:11;77.13;;;32.67;;
55364;SDS011;41245;45.384;20.390;2023-02-08T06:30:37;81.05;;;33.60;;
55364;SDS011;41245;45.384;20.390;2023-02-08T06:33:03;69.05;;;30.42;;
55364;SDS011;41245;45.384;20.390;2023-02-08T06:35:29;65.93;;;29.40;;
55364;SDS011;41245;45.384;20.390;2023-02-08T06:37:55;67.32;;;31.33;;
55364;SDS011;41245;45.384;20.390;2023-02-08T06:40:22;66.93;;;35.00;;
55364;SDS011;41245;45.384;20.390;2023-02-08T06:42:48;75.22;;;34.50;;
55364;SDS011;41245;45.384;20.390;2023-02-08T06:45:15;75.65;;;35.67;;
55364;SDS011;41245;45.384;20.390;2023-02-08T06:47:41;70.57;;;33.63;;
55364;SDS011;41245;45.384;20.390;2023-02-08T06:50:07;76.82;;;34.75;;
55364;SDS011;41245;45.384;20.390;2023-02-08T06:52:33;88.18;;;35.10;;
55364;SDS011;41245;45.384;20.390;2023-02-08T06:54:58;66.38;;;33.40;;
55364;SDS011;41245;45.384;20.390;2023-02-08T06:57:24;71.20;;;31.70;;
55364;SDS011;41245;45.384;20.390;2023-02-08T06:59:50;80.50;;;33.38;;
55364;SDS011;41245;45.384;20.390;2023-02-08T07:02:17;86.35;;;36.92;;
55364;SDS011;41245;45.384;20.390;2023-02-08T07:04:45;76.85;;;33.80;;
55364;SDS011;41245;45.384;20.390;2023-02-08T07:07:12;83.63;;;34.83;;
55364;SDS011;41245;45.384;20.390;2023-02-08T07:09:39;75.03;;;30.65;;
55364;SDS011;41245;45.384;20.390;2023-02-08T07:12:05;69.72;;;30.75;;
55364;SDS011;41245;45.384;20.390;2023-02-08T07:14:32;68.07;;;30.10;;
55364;SDS011;41245;45.384;20.390;2023-02-08T07:16:59;71.53;;;28.83;;
55364;SDS011;41245;45.384;20.390;2023-02-08T07:19:26;67.70;;;29.70;;
55364;SDS011;41245;45.384;20.390;2023-02-08T07:21:52;65.95;;;27.02;;
55364;SDS011;41245;45.384;20.390;2023-02-08T07:24:18;63.90;;;28.13;;
55364;SDS011;41245;45.384;20.390;2023-02-08T07:26:44;66.85;;;29.90;;
55364;SDS011;41245;45.384;20.390;2023-02-08T07:29:10;59.75;;;27.30;;
55364;SDS011;41245;45.384;20.390;2023-02-08T07:31:35;65.05;;;27.95;;
55364;SDS011;41245;45.384;20.390;2023-02-08T07:34:01;66.55;;;29.13;;
55364;SDS011;41245;45.384;20.390;2023-02-08T07:36:27;60.30;;;28.33;;
55364;SDS011;41245;45.384;20.390;2023-02-08T07:38:52;66.28;;;30.17;;
55364;SDS011;41245;45.384;20.390;2023-02-08T07:41:18;61.22;;;27.27;;
55364;SDS011;41245;45.384;20.390;2023-02-08T07:43:43;62.33;;;29.55;;
55364;SDS011;41245;45.384;20.390;2023-02-08T07:46:10;53.33;;;25.73;;
55364;SDS011;41245;45.384;20.390;2023-02-08T07:48:38;51.88;;;23.73;;
55364;SDS011;41245;45.384;20.390;2023-02-08T07:51:03;56.97;;;24.92;;
55364;SDS011;41245;45.384;20.390;2023-02-08T07:53:30;53.50;;;25.80;;
55364;SDS011;41245;45.384;20.390;2023-02-08T07:55:56;53.15;;;23.40;;
55364;SDS011;41245;45.384;20.390;2023-02-08T07:58:22;55.92;;;26.48;;
55364;SDS011;41245;45.384;20.390;2023-02-08T08:00:48;57.60;;;24.83;;
55364;SDS011;41245;45.384;20.390;2023-02-08T08:03:13;53.83;;;26.15;;
55364;SDS011;41245;45.384;20.390;2023-02-08T08:05:39;53.47;;;25.25;;
55364;SDS011;41245;45.384;20.390;2023-02-08T08:08:06;51.53;;;24.58;;
55364;SDS011;41245;45.384;20.390;2023-02-08T08:10:32;55.72;;;25.58;;
55364;SDS011;41245;45.384;20.390;2023-02-08T08:12:58;50.88;;;23.38;;
55364;SDS011;41245;45.384;20.390;2023-02-08T08:15:24;48.80;;;24.15;;
55364;SDS011;41245;45.384;20.390;2023-02-08T08:17:50;51.75;;;23.70;;
55364;SDS011;41245;45.384;20.390;2023-02-08T08:20:15;57.88;;;24.88;;
55364;SDS011;41245;45.384;20.390;2023-02-08T08:22:41;58.33;;;25.80;;
55364;SDS011;41245;45.384;20.390;2023-02-08T08:25:07;52.67;;;26.95;;
55364;SDS011;41245;45.384;20.390;2023-02-08T08:27:33;57.42;;;25.75;;
55364;SDS011;41245;45.384;20.390;2023-02-08T08:29:59;63.60;;;29.25;;
55364;SDS011;41245;45.384;20.390;2023-02-08T08:32:25;57.53;;;26.70;;
55364;SDS011;41245;45.384;20.390;2023-02-08T08:34:50;63.75;;;28.40;;
55364;SDS011;41245;45.384;20.390;2023-02-08T08:37:16;53.00;;;24.30;;
55364;SDS011;41245;45.384;20.390;2023-02-08T08:39:41;52.72;;;25.88;;
55364;SDS011;41245;45.384;20.390;2023-02-08T08:42:07;58.75;;;26.35;;
55364;SDS011;41245;45.384;20.390;2023-02-08T08:44:33;52.70;;;25.20;;
55364;SDS011;41245;45.384;20.390;2023-02-08T08:46:59;50.42;;;25.70;;
55364;SDS011;41245;45.384;20.390;2023-02-08T08:49:25;52.70;;;25.35;;
55364;SDS011;41245;45.384;20.390;2023-02-08T08:51:52;52.75;;;27.33;;
55364;SDS011;41245;45.384;20.390;2023-02-08T08:54:18;51.05;;;24.02;;
55364;SDS011;41245;45.384;20.390;2023-02-08T08:56:44;51.45;;;24.25;;
55364;SDS011;41245;45.384;20.390;2023-02-08T08:59:10;50.05;;;24.38;;
55364;SDS011;41245;45.384;20.390;2023-02-08T09:01:36;60.33;;;27.50;;
55364;SDS011;41245;45.384;20.390;2023-02-08T09:04:03;49.63;;;24.88;;
55364;SDS011;41245;45.384;20.390;2023-02-08T09:06:28;55.53;;;26.58;;
55364;SDS011;41245;45.384;20.390;2023-02-08T09:08:54;54.88;;;27.42;;
55364;SDS011;41245;45.384;20.390;2023-02-08T09:11:20;53.63;;;25.02;;
55364;SDS011;41245;45.384;20.390;2023-02-08T09:13:46;56.40;;;28.40;;
55364;SDS011;41245;45.384;20.390;2023-02-08T09:16:12;45.30;;;24.98;;
55364;SDS011;41245;45.384;20.390;2023-02-08T09:18:40;46.35;;;24.48;;
55364;SDS011;41245;45.384;20.390;2023-02-08T09:21:10;56.17;;;25.42;;
55364;SDS011;41245;45.384;20.390;2023-02-08T09:23:37;61.55;;;27.75;;
55364;SDS011;41245;45.384;20.390;2023-02-08T09:26:07;58.10;;;29.80;;
55364;SDS011;41245;45.384;20.390;2023-02-08T09:28:34;60.67;;;25.63;;
55364;SDS011;41245;45.384;20.390;2023-02-08T09:31:07;43.33;;;21.55;;
55364;SDS011;41245;45.384;20.390;2023-02-08T09:33:37;44.53;;;21.45;;
55364;SDS011;41245;45.384;20.390;2023-02-08T09:36:03;43.42;;;21.58;;
55364;SDS011;41245;45.384;20.390;2023-02-08T09:38:30;36.00;;;18.88;;
55364;SDS011;41245;45.384;20.390;2023-02-08T09:43:31;33.20;;;17.67;;
55364;SDS011;41245;45.384;20.390;2023-02-08T09:46:12;37.58;;;20.13;;
55364;SDS011;41245;45.384;20.390;2023-02-08T09:48:45;40.25;;;19.60;;
55364;SDS011;41245;45.384;20.390;2023-02-08T09:54:14;39.78;;;18.20;;
55364;SDS011;41245;45.384;20.390;2023-02-08T09:56:40;38.20;;;19.30;;
55364;SDS011;41245;45.384;20.390;2023-02-08T09:59:12;39.33;;;19.05;;
55364;SDS011;41245;45.384;20.390;2023-02-08T10:02:27;36.88;;;18.65;;
55364;SDS011;41245;45.384;20.390;2023-02-08T10:07:26;36.72;;;17.90;;
55364;SDS011;41245;45.384;20.390;2023-02-08T10:09:53;34.35;;;17.88;;
55364;SDS011;41245;45.384;20.390;2023-02-08T10:15:04;42.38;;;19.08;;
55364;SDS011;41245;45.384;20.390;2023-02-08T10:20:59;44.88;;;18.80;;
55364;SDS011;41245;45.384;20.390;2023-02-08T10:26:33;39.70;;;17.42;;
55364;SDS011;41245;45.384;20.390;2023-02-08T10:32:04;57.47;;;23.20;;
55364;SDS011;41245;45.384;20.390;2023-02-08T10:37:26;37.03;;;17.65;;
55364;SDS011;41245;45.384;20.390;2023-02-08T10:39:56;41.72;;;20.05;;
55364;SDS011;41245;45.384;20.390;2023-02-08T10:42:25;43.65;;;19.45;;
55364;SDS011;41245;45.384;20.390;2023-02-08T10:44:55;34.53;;;17.70;;
55364;SDS011;41245;45.384;20.390;2023-02-08T10:47:45;34.92;;;17.13;;
55364;SDS011;41245;45.384;20.390;2023-02-08T10:52:48;66.80;;;31.02;;
55364;SDS011;41245;45.384;20.390;2023-02-08T10:55:14;51.00;;;24.75;;
55364;SDS011;41245;45.384;20.390;2023-02-08T10:57:42;117.50;;;52.67;;
55364;SDS011;41245;45.384;20.390;2023-02-08T11:00:21;65.85;;;32.08;;
55364;SDS011;41245;45.384;20.390;2023-02-08T11:02:51;55.15;;;26.75;;
55364;SDS011;41245;45.384;20.390;2023-02-08T11:05:19;67.38;;;43.95;;
55364;SDS011;41245;45.384;20.390;2023-02-08T11:08:07;62.17;;;32.05;;
55364;SDS011;41245;45.384;20.390;2023-02-08T11:10:33;36.38;;;19.98;;
55364;SDS011;41245;45.384;20.390;2023-02-08T11:13:04;62.75;;;34.50;;
55364;SDS011;41245;45.384;20.390;2023-02-08T11:18:34;35.33;;;17.65;;
55364;SDS011;41245;45.384;20.390;2023-02-08T11:21:02;35.33;;;20.00;;
55364;SDS011;41245;45.384;20.390;2023-02-08T11:23:49;29.45;;;17.15;;
55364;SDS011;41245;45.384;20.390;2023-02-08T11:26:20;36.42;;;17.80;;
55364;SDS011;41245;45.384;20.390;2023-02-08T11:28:57;41.92;;;20.02;;
55364;SDS011;41245;45.384;20.390;2023-02-08T11:31:35;34.63;;;18.58;;
55364;SDS011;41245;45.384;20.390;2023-02-08T11:34:02;37.45;;;18.92;;
55364;SDS011;41245;45.384;20.390;2023-02-08T11:36:30;29.00;;;16.40;;
55364;SDS011;41245;45.384;20.390;2023-02-08T11:38:59;36.78;;;18.55;;
55364;SDS011;41245;45.384;20.390;2023-02-08T11:41:27;29.48;;;15.02;;
55364;SDS011;41245;45.384;20.390;2023-02-08T11:44:14;32.80;;;16.40;;
55364;SDS011;41245;45.384;20.390;2023-02-08T11:46:46;39.13;;;19.05;;
55364;SDS011;41245;45.384;20.390;2023-02-08T11:49:21;37.00;;;19.08;;
55364;SDS011;41245;45.384;20.390;2023-02-08T11:51:50;32.75;;;16.45;;
55364;SDS011;41245;45.384;20.390;2023-02-08T11:54:33;32.58;;;16.02;;
55364;SDS011;41245;45.384;20.390;2023-02-08T11:57:08;32.95;;;17.42;;
55364;SDS011;41245;45.384;20.390;2023-02-08T11:59:45;31.05;;;16.58;;
55364;SDS011;41245;45.384;20.390;2023-02-08T12:04:53;29.20;;;16.02;;
55364;SDS011;41245;45.384;20.390;2023-02-08T12:07:24;34.25;;;16.67;;
55364;SDS011;41245;45.384;20.390;2023-02-08T12:12:47;38.25;;;17.70;;
55364;SDS011;41245;45.384;20.390;2023-02-08T12:16:13;34.10;;;16.40;;
55364;SDS011;41245;45.384;20.390;2023-02-08T12:20:55;32.75;;;14.57;;
55364;SDS011;41245;45.384;20.390;2023-02-08T12:27:20;23.38;;;12.45;;
55364;SDS011;41245;45.384;20.390;2023-02-08T12:29:46;24.48;;;12.27;;
55364;SDS011;41245;45.384;20.390;2023-02-08T12:37:53;25.45;;;13.77;;
55364;SDS011;41245;45.384;20.390;2023-02-08T12:41:25;26.15;;;14.55;;
55364;SDS011;41245;45.384;20.390;2023-02-08T12:44:08;35.17;;;15.60;;
55364;SDS011;41245;45.384;20.390;2023-02-08T12:49:56;32.05;;;16.13;;
55364;SDS011;41245;45.384;20.390;2023-02-08T12:52:37;30.45;;;15.35;;
55364;SDS011;41245;45.384;20.390;2023-02-08T12:55:17;20.95;;;12.40;;
55364;SDS011;41245;45.384;20.390;2023-02-08T12:57:51;23.83;;;13.07;;
55364;SDS011;41245;45.384;20.390;2023-02-08T13:00:22;23.88;;;12.75;;
55364;SDS011;41245;45.384;20.390;2023-02-08T13:05:29;26.25;;;13.50;;
55364;SDS011;41245;45.384;20.390;2023-02-08T13:08:02;33.55;;;17.67;;
55364;SDS011;41245;45.384;20.390;2023-02-08T13:10:41;32.13;;;16.88;;
55364;SDS011;41245;45.384;20.390;2023-02-08T13:13:18;34.30;;;17.70;;
55364;SDS011;41245;45.384;20.390;2023-02-08T13:15:58;86.85;;;41.92;;
55364;SDS011;41245;45.384;20.390;2023-02-08T13:18:34;41.28;;;21.65;;
55364;SDS011;41245;45.384;20.390;2023-02-08T13:21:07;44.40;;;22.50;;
55364;SDS011;41245;45.384;20.390;2023-02-08T13:23:44;47.72;;;21.77;;
55364;SDS011;41245;45.384;20.390;2023-02-08T13:26:14;39.90;;;14.73;;
55364;SDS011;41245;45.384;20.390;2023-02-08T13:28:55;29.77;;;15.65;;
55364;SDS011;41245;45.384;20.390;2023-02-08T13:31:23;29.88;;;16.95;;
55364;SDS011;41245;45.384;20.390;2023-02-08T13:33:57;29.85;;;15.57;;
55364;SDS011;41245;45.384;20.390;2023-02-08T13:36:28;26.40;;;14.63;;
55364;SDS011;41245;45.384;20.390;2023-02-08T13:38:58;37.67;;;17.05;;
55364;SDS011;41245;45.384;20.390;2023-02-08T13:41:25;39.75;;;20.40;;
55364;SDS011;41245;45.384;20.390;2023-02-08T13:44:05;53.95;;;25.52;;
55364;SDS011;41245;45.384;20.390;2023-02-08T13:46:51;31.02;;;16.35;;
55364;SDS011;41245;45.384;20.390;2023-02-08T13:52:55;31.80;;;14.68;;
55364;SDS011;41245;45.384;20.390;2023-02-08T14:03:23;30.45;;;14.43;;
55364;SDS011;41245;45.384;20.390;2023-02-08T14:05:53;38.72;;;14.57;;
55364;SDS011;41245;45.384;20.390;2023-02-08T14:13:33;34.17;;;15.23;;
55364;SDS011;41245;45.384;20.390;2023-02-08T14:19:22;31.25;;;16.40;;
55364;SDS011;41245;45.384;20.390;2023-02-08T14:21:48;27.15;;;14.50;;
55364;SDS011;41245;45.384;20.390;2023-02-08T14:24:42;32.97;;;16.95;;
55364;SDS011;41245;45.384;20.390;2023-02-08T14:32:24;32.20;;;15.30;;
55364;SDS011;41245;45.384;20.390;2023-02-08T14:35:26;38.65;;;17.83;;
55364;SDS011;41245;45.384;20.390;2023-02-08T14:37:46;36.67;;;16.92;;
55364;SDS011;41245;45.384;20.390;2023-02-08T14:45:33;36.65;;;18.20;;
55364;SDS011;41245;45.384;20.390;2023-02-08T14:48:15;30.02;;;14.38;;
55364;SDS011;41245;45.384;20.390;2023-02-08T14:53:36;33.28;;;16.67;;
55364;SDS011;41245;45.384;20.390;2023-02-08T14:56:15;42.70;;;20.15;;
55364;SDS011;41245;45.384;20.390;2023-02-08T15:03:53;42.95;;;18.73;;
55364;SDS011;41245;45.384;20.390;2023-02-08T15:09:44;52.97;;;23.27;;
55364;SDS011;41245;45.384;20.390;2023-02-08T15:12:03;57.92;;;24.45;;
55364;SDS011;41245;45.384;20.390;2023-02-08T15:14:33;52.80;;;23.83;;
55364;SDS011;41245;45.384;20.390;2023-02-08T15:17:00;46.75;;;22.92;;
55364;SDS011;41245;45.384;20.390;2023-02-08T15:19:33;55.22;;;26.50;;
55364;SDS011;41245;45.384;20.390;2023-02-08T15:22:28;54.90;;;25.45;;
55364;SDS011;41245;45.384;20.390;2023-02-08T15:25:12;60.50;;;26.40;;
55364;SDS011;41245;45.384;20.390;2023-02-08T15:27:49;409.55;;;127.15;;
55364;SDS011;41245;45.384;20.390;2023-02-08T15:30:34;152.80;;;55.28;;
55364;SDS011;41245;45.384;20.390;2023-02-08T15:33:02;158.63;;;65.88;;
55364;SDS011;41245;45.384;20.390;2023-02-08T15:35:32;214.60;;;89.57;;
55364;SDS011;41245;45.384;20.390;2023-02-08T15:37:59;115.45;;;48.20;;
55364;SDS011;41245;45.384;20.390;2023-02-08T15:40:30;120.43;;;52.53;;
55364;SDS011;41245;45.384;20.390;2023-02-08T15:43:16;91.72;;;38.95;;
55364;SDS011;41245;45.384;20.390;2023-02-08T15:45:44;64.63;;;31.27;;
55364;SDS011;41245;45.384;20.390;2023-02-08T15:48:24;37.45;;;19.85;;
55364;SDS011;41245;45.384;20.390;2023-02-08T15:50:51;70.50;;;30.80;;
55364;SDS011;41245;45.384;20.390;2023-02-08T15:53:17;69.35;;;32.05;;
55364;SDS011;41245;45.384;20.390;2023-02-08T15:55:53;42.28;;;18.98;;
55364;SDS011;41245;45.384;20.390;2023-02-08T15:58:31;35.50;;;18.80;;
55364;SDS011;41245;45.384;20.390;2023-02-08T16:01:01;65.20;;;29.67;;
55364;SDS011;41245;45.384;20.390;2023-02-08T16:03:29;46.58;;;23.15;;
55364;SDS011;41245;45.384;20.390;2023-02-08T16:05:56;66.97;;;34.45;;
55364;SDS011;41245;45.384;20.390;2023-02-08T16:08:28;42.55;;;21.63;;
55364;SDS011;41245;45.384;20.390;2023-02-08T16:13:35;61.58;;;24.00;;
55364;SDS011;41245;45.384;20.390;2023-02-08T16:18:47;63.05;;;27.77;;
55364;SDS011;41245;45.384;20.390;2023-02-08T16:21:20;55.00;;;26.40;;
55364;SDS011;41245;45.384;20.390;2023-02-08T16:24:31;67.63;;;28.90;;
55364;SDS011;41245;45.384;20.390;2023-02-08T16:29:18;80.65;;;31.10;;
55364;SDS011;41245;45.384;20.390;2023-02-08T16:34:46;70.63;;;28.55;;
55364;SDS011;41245;45.384;20.390;2023-02-08T16:42:37;72.60;;;29.85;;
55364;SDS011;41245;45.384;20.390;2023-02-08T16:47:43;70.15;;;30.10;;
55364;SDS011;41245;45.384;20.390;2023-02-08T16:50:20;70.60;;;29.15;;
55364;SDS011;41245;45.384;20.390;2023-02-08T16:52:54;60.38;;;28.35;;
55364;SDS011;41245;45.384;20.390;2023-02-08T16:55:25;62.22;;;30.63;;
55364;SDS011;41245;45.384;20.390;2023-02-08T16:57:53;93.43;;;38.65;;
55364;SDS011;41245;45.384;20.390;2023-02-08T17:00:38;72.13;;;35.47;;
55364;SDS011;41245;45.384;20.390;2023-02-08T17:03:04;104.88;;;42.88;;
55364;SDS011;41245;45.384;20.390;2023-02-08T17:05:31;114.57;;;51.15;;
55364;SDS011;41245;45.384;20.390;2023-02-08T17:08:00;110.75;;;48.70;;
55364;SDS011;41245;45.384;20.390;2023-02-08T17:10:32;111.50;;;50.90;;